sensor_id;sensor_type;location;lat;lon;timestamp;pressure;altitude;pressure_sealevel;temperature;humidity
48926;BME280;39838;59.938;30.642;2023-04-07T00:01:50;102190.00;;;1.46;54.29
48926;BME280;39838;59.938;30.642;2023-04-07T00:04:17;102190.00;;;1.46;54.17
48926;BME280;39838;59.938;30.642;2023-04-07T00:06:45;102188.94;;;1.43;54.57
48926;BME280;39838;59.938;30.642;2023-04-07T00:09:12;102196.72;;;1.44;54.20
48926;BME280;39838;59.938;30.642;2023-04-07T00:11:39;102189.81;;;1.43;54.31
48926;BME280;39838;59.938;30.642;2023-04-07T00:14:06;102190.50;;;1.41;54.38
48926;BME280;39838;59.938;30.642;2023-04-07T00:16:34;102186.88;;;1.37;54.36
48926;BME280;39838;59.938;30.642;2023-04-07T00:19:01;102184.09;;;1.34;54.52
48926;BME280;39838;59.938;30.642;2023-04-07T00:21:28;102184.88;;;1.33;54.45
48926;BME280;39838;59.938;30.642;2023-04-07T00:23:57;102183.91;;;1.31;54.68
48926;BME280;39838;59.938;30.642;2023-04-07T00:26:24;102178.69;;;1.29;54.40
48926;BME280;39838;59.938;30.642;2023-04-07T00:28:56;102184.59;;;1.28;54.52
48926;BME280;39838;59.938;30.642;2023-04-07T00:31:23;102179.38;;;1.27;54.31
48926;BME280;39838;59.938;30.642;2023-04-07T00:33:50;102186.97;;;1.25;54.94
48926;BME280;39838;59.938;30.642;2023-04-07T00:36:17;102184.31;;;1.24;54.68
48926;BME280;39838;59.938;30.642;2023-04-07T00:38:44;102179.97;;;1.23;54.62
48926;BME280;39838;59.938;30.642;2023-04-07T00:41:13;102179.97;;;1.23;54.42
48926;BME280;39838;59.938;30.642;2023-04-07T00:43:40;102175.75;;;1.23;54.97
48926;BME280;39838;59.938;30.642;2023-04-07T00:46:07;102173.84;;;1.21;54.96
48926;BME280;39838;59.938;30.642;2023-04-07T00:48:35;102177.91;;;1.17;54.57
48926;BME280;39838;59.938;30.642;2023-04-07T00:51:03;102178.56;;;1.15;55.05
48926;BME280;39838;59.938;30.642;2023-04-07T00:53:31;102176.00;;;1.15;54.97
48926;BME280;39838;59.938;30.642;2023-04-07T00:55:58;102169.13;;;1.14;54.76
48926;BME280;39838;59.938;30.642;2023-04-07T00:58:26;102173.28;;;1.12;54.75
48926;BME280;39838;59.938;30.642;2023-04-07T01:01:00;102166.97;;;1.06;54.87
48926;BME280;39838;59.938;30.642;2023-04-07T01:03:34;102168.31;;;1.01;55.17
48926;BME280;39838;59.938;30.642;2023-04-07T01:06:05;102167.56;;;1.02;55.13
48926;BME280;39838;59.938;30.642;2023-04-07T01:08:40;102173.66;;;1.04;54.87
48926;BME280;39838;59.938;30.642;2023-04-07T01:11:15;102171.19;;;1.06;54.97
48926;BME280;39838;59.938;30.642;2023-04-07T01:13:49;102177.19;;;1.06;55.21
48926;BME280;39838;59.938;30.642;2023-04-07T01:16:22;102161.56;;;1.02;55.30
48926;BME280;39838;59.938;30.642;2023-04-07T01:18:53;102162.31;;;1.01;55.47
48926;BME280;39838;59.938;30.642;2023-04-07T01:21:25;102162.06;;;0.96;55.52
48926;BME280;39838;59.938;30.642;2023-04-07T01:27:14;102164.13;;;0.89;55.48
48926;BME280;39838;59.938;30.642;2023-04-07T01:29:51;102169.72;;;0.83;55.35
48926;BME280;39838;59.938;30.642;2023-04-07T01:32:19;102172.19;;;0.81;55.75
48926;BME280;39838;59.938;30.642;2023-04-07T01:34:49;102172.94;;;0.80;55.95
48926;BME280;39838;59.938;30.642;2023-04-07T01:37:18;102172.94;;;0.80;55.61
48926;BME280;39838;59.938;30.642;2023-04-07T01:39:46;102172.94;;;0.80;55.86
48926;BME280;39838;59.938;30.642;2023-04-07T01:42:13;102167.72;;;0.79;55.69
48926;BME280;39838;59.938;30.642;2023-04-07T01:44:41;102168.69;;;0.81;55.85
48926;BME280;39838;59.938;30.642;2023-04-07T01:47:10;102160.03;;;0.79;56.10
48926;BME280;39838;59.938;30.642;2023-04-07T01:49:39;102165.84;;;0.76;55.88
48926;BME280;39838;59.938;30.642;2023-04-07T01:52:08;102163.31;;;0.76;55.84
48926;BME280;39838;59.938;30.642;2023-04-07T01:54:36;102165.44;;;0.70;56.13
48926;BME280;39838;59.938;30.642;2023-04-07T01:57:03;102167.13;;;0.70;56.37
48926;BME280;39838;59.938;30.642;2023-04-07T01:59:30;102167.22;;;0.71;56.24
48926;BME280;39838;59.938;30.642;2023-04-07T02:01:57;102167.13;;;0.70;56.02
48926;BME280;39838;59.938;30.642;2023-04-07T02:04:31;102166.16;;;0.68;56.04
48926;BME280;39838;59.938;30.642;2023-04-07T02:07:07;102174.59;;;0.67;56.34
48926;BME280;39838;59.938;30.642;2023-04-07T02:09:37;102171.75;;;0.62;56.59
48926;BME280;39838;59.938;30.642;2023-04-07T02:12:08;102167.19;;;0.58;56.86
48926;BME280;39838;59.938;30.642;2023-04-07T02:14:38;102162.06;;;0.58;56.96
48926;BME280;39838;59.938;30.642;2023-04-07T02:17:08;102170.53;;;0.57;56.75
48926;BME280;39838;59.938;30.642;2023-04-07T02:19:37;102167.00;;;0.55;56.64
48926;BME280;39838;59.938;30.642;2023-04-07T02:22:04;102169.25;;;0.50;56.66
48926;BME280;39838;59.938;30.642;2023-04-07T02:24:32;102173.38;;;0.48;57.27
48926;BME280;39838;59.938;30.642;2023-04-07T02:26:59;102165.38;;;0.44;57.51
48926;BME280;39838;59.938;30.642;2023-04-07T02:29:27;102171.19;;;0.41;57.12
48926;BME280;39838;59.938;30.642;2023-04-07T02:31:55;102162.31;;;0.36;57.14
48926;BME280;39838;59.938;30.642;2023-04-07T02:34:22;102165.06;;;0.39;57.54
48926;BME280;39838;59.938;30.642;2023-04-07T02:36:51;102166.84;;;0.40;57.15
48926;BME280;39838;59.938;30.642;2023-04-07T02:39:18;102166.09;;;0.41;57.27
48926;BME280;39838;59.938;30.642;2023-04-07T02:41:45;102169.19;;;0.37;57.47
48926;BME280;39838;59.938;30.642;2023-04-07T02:44:12;102160.31;;;0.32;57.64
48926;BME280;39838;59.938;30.642;2023-04-07T02:46:39;102169.00;;;0.34;57.46
48926;BME280;39838;59.938;30.642;2023-04-07T02:49:06;102169.00;;;0.34;57.34
48926;BME280;39838;59.938;30.642;2023-04-07T02:51:33;102171.44;;;0.33;57.60
48926;BME280;39838;59.938;30.642;2023-04-07T02:54:02;102163.66;;;0.31;58.05
48926;BME280;39838;59.938;30.642;2023-04-07T02:56:29;102160.13;;;0.29;57.91
48926;BME280;39838;59.938;30.642;2023-04-07T02:58:57;102166.91;;;0.29;58.05
48926;BME280;39838;59.938;30.642;2023-04-07T03:01:24;102163.47;;;0.28;58.20
48926;BME280;39838;59.938;30.642;2023-04-07T03:03:52;102160.69;;;0.25;58.03
48926;BME280;39838;59.938;30.642;2023-04-07T03:06:19;102173.47;;;0.25;58.55
48926;BME280;39838;59.938;30.642;2023-04-07T03:08:46;102174.06;;;0.21;58.34
48926;BME280;39838;59.938;30.642;2023-04-07T03:11:15;102172.63;;;0.13;58.48
48926;BME280;39838;59.938;30.642;2023-04-07T03:13:42;102171.66;;;0.11;58.61
48926;BME280;39838;59.938;30.642;2023-04-07T03:16:09;102169.97;;;0.11;58.83
48926;BME280;39838;59.938;30.642;2023-04-07T03:18:36;102171.75;;;0.12;58.83
48926;BME280;39838;59.938;30.642;2023-04-07T03:21:03;102171.75;;;0.12;58.78
48926;BME280;39838;59.938;30.642;2023-04-07T03:23:30;102183.88;;;0.15;58.70
48926;BME280;39838;59.938;30.642;2023-04-07T03:25:57;102177.28;;;0.18;58.82
48926;BME280;39838;59.938;30.642;2023-04-07T03:28:26;102176.63;;;0.21;58.66
48926;BME280;39838;59.938;30.642;2023-04-07T03:30:53;102176.03;;;0.25;58.79
48926;BME280;39838;59.938;30.642;2023-04-07T03:33:20;102181.38;;;0.28;58.78
48926;BME280;39838;59.938;30.642;2023-04-07T03:35:47;102175.06;;;0.23;58.42
48926;BME280;39838;59.938;30.642;2023-04-07T03:38:14;102176.13;;;0.26;59.15
48926;BME280;39838;59.938;30.642;2023-04-07T03:40:41;102169.25;;;0.25;58.46
48926;BME280;39838;59.938;30.642;2023-04-07T03:43:08;102175.66;;;0.32;58.77
48926;BME280;39838;59.938;30.642;2023-04-07T03:45:40;102183.34;;;0.32;59.23
48926;BME280;39838;59.938;30.642;2023-04-07T03:48:07;102172.53;;;0.36;59.04
48926;BME280;39838;59.938;30.642;2023-04-07T03:50:36;102176.19;;;0.40;58.82
48926;BME280;39838;59.938;30.642;2023-04-07T03:53:03;102179.63;;;0.40;59.00
48926;BME280;39838;59.938;30.642;2023-04-07T03:55:30;102172.06;;;0.42;59.16
48926;BME280;39838;59.938;30.642;2023-04-07T03:57:58;102172.06;;;0.42;58.94
48926;BME280;39838;59.938;30.642;2023-04-07T04:00:25;102177.28;;;0.43;59.07
48926;BME280;39838;59.938;30.642;2023-04-07T04:02:54;102171.38;;;0.44;58.95
48926;BME280;39838;59.938;30.642;2023-04-07T04:05:21;102175.16;;;0.49;58.74
48926;BME280;39838;59.938;30.642;2023-04-07T04:07:48;102178.13;;;0.56;58.68
48926;BME280;39838;59.938;30.642;2023-04-07T04:10:16;102173.50;;;0.63;58.70
48926;BME280;39838;59.938;30.642;2023-04-07T04:12:43;102170.66;;;0.72;59.04
48926;BME280;39838;59.938;30.642;2023-04-07T04:15:10;102180.31;;;0.76;58.92
48926;BME280;39838;59.938;30.642;2023-04-07T04:17:37;102188.97;;;0.78;58.58
48926;BME280;39838;59.938;30.642;2023-04-07T04:20:07;102182.28;;;0.80;58.55
48926;BME280;39838;59.938;30.642;2023-04-07T04:22:34;102183.06;;;0.79;58.83
48926;BME280;39838;59.938;30.642;2023-04-07T04:25:02;102192.75;;;0.83;58.72
48926;BME280;39838;59.938;30.642;2023-04-07T04:27:29;102193.03;;;0.88;58.55
48926;BME280;39838;59.938;30.642;2023-04-07T04:29:56;102189.19;;;0.94;58.83
48926;BME280;39838;59.938;30.642;2023-04-07T04:32:23;102186.84;;;0.97;58.73
48926;BME280;39838;59.938;30.642;2023-04-07T04:34:51;102194.13;;;1.04;58.70
48926;BME280;39838;59.938;30.642;2023-04-07T04:37:19;102194.22;;;1.06;58.27
48926;BME280;39838;59.938;30.642;2023-04-07T04:39:46;102191.19;;;1.12;58.23
48926;BME280;39838;59.938;30.642;2023-04-07T04:42:14;102188.06;;;1.16;58.08
48926;BME280;39838;59.938;30.642;2023-04-07T04:44:41;102192.88;;;1.24;58.06
48926;BME280;39838;59.938;30.642;2023-04-07T04:47:08;102191.38;;;1.28;57.96
48926;BME280;39838;59.938;30.642;2023-04-07T04:49:35;102196.81;;;1.32;58.34
48926;BME280;39838;59.938;30.642;2023-04-07T04:52:02;102185.59;;;1.30;58.04
48926;BME280;39838;59.938;30.642;2023-04-07T04:54:31;102188.25;;;1.32;58.10
48926;BME280;39838;59.938;30.642;2023-04-07T04:56:58;102187.06;;;1.40;57.79
48926;BME280;39838;59.938;30.642;2023-04-07T04:59:26;102201.13;;;1.47;57.76
48926;BME280;39838;59.938;30.642;2023-04-07T05:01:53;102188.13;;;1.57;57.79
48926;BME280;39838;59.938;30.642;2023-04-07T05:04:20;102186.22;;;1.68;57.68
48926;BME280;39838;59.938;30.642;2023-04-07T05:06:47;102190.16;;;1.76;57.54
48926;BME280;39838;59.938;30.642;2023-04-07T05:09:14;102187.38;;;1.86;57.37
48926;BME280;39838;59.938;30.642;2023-04-07T05:11:43;102187.13;;;1.96;57.30
48926;BME280;39838;59.938;30.642;2023-04-07T05:14:10;102183.28;;;2.03;57.01
48926;BME280;39838;59.938;30.642;2023-04-07T05:16:37;102187.91;;;2.08;56.87
48926;BME280;39838;59.938;30.642;2023-04-07T05:19:04;102193.78;;;2.21;56.81
48926;BME280;39838;59.938;30.642;2023-04-07T05:21:31;102196.38;;;2.35;56.70
48926;BME280;39838;59.938;30.642;2023-04-07T05:23:58;102192.88;;;2.48;56.13
48926;BME280;39838;59.938;30.642;2023-04-07T05:26:25;102187.94;;;2.51;56.16
48926;BME280;39838;59.938;30.642;2023-04-07T05:28:54;102195.56;;;2.64;56.02
48926;BME280;39838;59.938;30.642;2023-04-07T05:31:21;102197.78;;;2.73;56.04
48926;BME280;39838;59.938;30.642;2023-04-07T05:33:48;102195.81;;;2.84;55.66
48926;BME280;39838;59.938;30.642;2023-04-07T05:36:16;102201.41;;;2.91;55.81
48926;BME280;39838;59.938;30.642;2023-04-07T05:38:43;102196.53;;;2.96;55.50
48926;BME280;39838;59.938;30.642;2023-04-07T05:41:10;102193.44;;;3.01;54.94
48926;BME280;39838;59.938;30.642;2023-04-07T05:43:37;102199.66;;;3.05;55.32
48926;BME280;39838;59.938;30.642;2023-04-07T05:46:06;102192.19;;;3.10;54.99
48926;BME280;39838;59.938;30.642;2023-04-07T05:48:33;102196.88;;;3.17;55.04
48926;BME280;39838;59.938;30.642;2023-04-07T05:51:00;102197.50;;;3.27;54.92
48926;BME280;39838;59.938;30.642;2023-04-07T05:53:27;102198.34;;;3.43;54.45
48926;BME280;39838;59.938;30.642;2023-04-07T05:55:54;102190.16;;;3.50;54.16
48926;BME280;39838;59.938;30.642;2023-04-07T05:58:21;102191.41;;;3.56;54.24
48926;BME280;39838;59.938;30.642;2023-04-07T06:00:49;102195.66;;;3.56;54.18
48926;BME280;39838;59.938;30.642;2023-04-07T06:03:17;102198.41;;;3.59;54.13
48926;BME280;39838;59.938;30.642;2023-04-07T06:05:45;102199.72;;;3.67;54.11
48926;BME280;39838;59.938;30.642;2023-04-07T06:08:12;102200.81;;;3.72;53.88
48926;BME280;39838;59.938;30.642;2023-04-07T06:10:39;102195.13;;;3.78;53.64
48926;BME280;39838;59.938;30.642;2023-04-07T06:13:06;102192.75;;;3.81;53.19
48926;BME280;39838;59.938;30.642;2023-04-07T06:15:34;102193.09;;;3.72;53.54
48926;BME280;39838;59.938;30.642;2023-04-07T06:18:01;102201.56;;;3.86;53.31
48926;BME280;39838;59.938;30.642;2023-04-07T06:20:30;102201.03;;;3.92;53.50
48926;BME280;39838;59.938;30.642;2023-04-07T06:22:57;102193.00;;;4.02;53.21
48926;BME280;39838;59.938;30.642;2023-04-07T06:25:24;102198.81;;;4.14;53.41
48926;BME280;39838;59.938;30.642;2023-04-07T06:27:52;102198.00;;;4.31;53.22
48926;BME280;39838;59.938;30.642;2023-04-07T06:30:19;102199.44;;;4.43;52.52
48926;BME280;39838;59.938;30.642;2023-04-07T06:32:46;102199.53;;;4.44;53.09
48926;BME280;39838;59.938;30.642;2023-04-07T06:35:13;102199.78;;;4.49;52.36
48926;BME280;39838;59.938;30.642;2023-04-07T06:37:42;102195.09;;;4.58;52.49
48926;BME280;39838;59.938;30.642;2023-04-07T06:40:09;102199.09;;;4.69;51.94
48926;BME280;39838;59.938;30.642;2023-04-07T06:42:37;102198.09;;;4.83;51.84
48926;BME280;39838;59.938;30.642;2023-04-07T06:45:06;102208.03;;;4.93;52.16
48926;BME280;39838;59.938;30.642;2023-04-07T06:47:33;102198.03;;;5.00;51.94
48926;BME280;39838;59.938;30.642;2023-04-07T06:50:00;102203.66;;;5.09;51.29
48926;BME280;39838;59.938;30.642;2023-04-07T06:52:29;102206.75;;;5.19;51.78
48926;BME280;39838;59.938;30.642;2023-04-07T06:54:57;102202.78;;;5.26;51.69
48926;BME280;39838;59.938;30.642;2023-04-07T06:57:24;102207.34;;;5.32;51.08
48926;BME280;39838;59.938;30.642;2023-04-07T06:59:52;102201.75;;;5.40;51.25
48926;BME280;39838;59.938;30.642;2023-04-07T07:02:19;102198.06;;;5.53;50.80
48926;BME280;39838;59.938;30.642;2023-04-07T07:04:46;102202.03;;;5.64;50.38
48926;BME280;39838;59.938;30.642;2023-04-07T07:07:13;102203.28;;;5.72;50.02
48926;BME280;39838;59.938;30.642;2023-04-07T07:09:40;102210.41;;;5.78;50.61
48926;BME280;39838;59.938;30.642;2023-04-07T07:12:09;102193.25;;;5.79;49.55
48926;BME280;39838;59.938;30.642;2023-04-07T07:14:36;102198.09;;;5.90;49.61
48926;BME280;39838;59.938;30.642;2023-04-07T07:17:03;102200.25;;;5.99;49.54
48926;BME280;39838;59.938;30.642;2023-04-07T07:19:30;102201.25;;;6.02;49.42
48926;BME280;39838;59.938;30.642;2023-04-07T07:21:57;102201.69;;;6.12;49.69
48926;BME280;39838;59.938;30.642;2023-04-07T07:24:24;102198.50;;;6.17;49.05
48926;BME280;39838;59.938;30.642;2023-04-07T07:26:51;102197.84;;;6.23;48.70
48926;BME280;39838;59.938;30.642;2023-04-07T07:29:19;102206.09;;;6.34;48.49
48926;BME280;39838;59.938;30.642;2023-04-07T07:31:47;102207.38;;;6.43;48.85
48926;BME280;39838;59.938;30.642;2023-04-07T07:34:14;102204.28;;;6.50;48.03
48926;BME280;39838;59.938;30.642;2023-04-07T07:36:41;102209.44;;;6.50;47.89
48926;BME280;39838;59.938;30.642;2023-04-07T07:39:08;102204.50;;;6.56;47.68
48926;BME280;39838;59.938;30.642;2023-04-07T07:41:35;102195.16;;;6.59;47.76
48926;BME280;39838;59.938;30.642;2023-04-07T07:44:02;102199.19;;;6.73;47.69
48926;BME280;39838;59.938;30.642;2023-04-07T07:46:31;102204.63;;;6.79;47.35
48926;BME280;39838;59.938;30.642;2023-04-07T07:48:58;102200.78;;;6.90;47.19
48926;BME280;39838;59.938;30.642;2023-04-07T07:51:25;102205.38;;;6.97;46.73
48926;BME280;39838;59.938;30.642;2023-04-07T07:53:53;102197.81;;;7.02;46.36
48926;BME280;39838;59.938;30.642;2023-04-07T07:56:20;102202.94;;;7.00;45.86
48926;BME280;39838;59.938;30.642;2023-04-07T07:58:48;102182.31;;;6.81;46.11
48926;BME280;39838;59.938;30.642;2023-04-07T08:01:15;102197.25;;;6.88;45.99
48926;BME280;39838;59.938;30.642;2023-04-07T08:03:44;102186.16;;;6.91;46.06
48926;BME280;39838;59.938;30.642;2023-04-07T08:06:11;102195.88;;;6.96;45.95
48926;BME280;39838;59.938;30.642;2023-04-07T08:08:38;102195.19;;;7.00;45.98
48926;BME280;39838;59.938;30.642;2023-04-07T08:11:06;102193.69;;;7.05;45.48
48926;BME280;39838;59.938;30.642;2023-04-07T08:13:33;102195.38;;;7.05;45.30
48926;BME280;39838;59.938;30.642;2023-04-07T08:16:00;102198.97;;;7.08;45.73
48926;BME280;39838;59.938;30.642;2023-04-07T08:18:27;102196.53;;;7.11;45.46
48926;BME280;39838;59.938;30.642;2023-04-07T08:20:56;102195.69;;;7.13;45.29
48926;BME280;39838;59.938;30.642;2023-04-07T08:23:23;102185.47;;;7.16;45.17
48926;BME280;39838;59.938;30.642;2023-04-07T08:25:50;102186.91;;;7.30;45.50
48926;BME280;39838;59.938;30.642;2023-04-07T08:28:17;102185.50;;;7.38;45.09
48926;BME280;39838;59.938;30.642;2023-04-07T08:30:45;102188.56;;;7.50;45.35
48926;BME280;39838;59.938;30.642;2023-04-07T08:33:12;102182.66;;;7.53;45.26
48926;BME280;39838;59.938;30.642;2023-04-07T08:35:40;102185.53;;;7.60;44.69
48926;BME280;39838;59.938;30.642;2023-04-07T08:38:08;102181.47;;;7.67;44.08
48926;BME280;39838;59.938;30.642;2023-04-07T08:40:35;102192.72;;;7.68;44.13
48926;BME280;39838;59.938;30.642;2023-04-07T08:43:06;102186.59;;;7.65;43.92
48926;BME280;39838;59.938;30.642;2023-04-07T08:45:38;102187.53;;;7.68;44.29
48926;BME280;39838;59.938;30.642;2023-04-07T08:48:12;102188.66;;;7.74;44.26
48926;BME280;39838;59.938;30.642;2023-04-07T08:50:43;102192.31;;;7.79;44.19
48926;BME280;39838;59.938;30.642;2023-04-07T08:53:13;102185.34;;;7.78;43.55
48926;BME280;39838;59.938;30.642;2023-04-07T08:55:44;102179.47;;;7.82;43.30
48926;BME280;39838;59.938;30.642;2023-04-07T08:58:12;102182.00;;;7.81;43.61
48926;BME280;39838;59.938;30.642;2023-04-07T09:00:42;102181.81;;;7.76;43.66
48926;BME280;39838;59.938;30.642;2023-04-07T09:03:14;102190.66;;;7.81;43.65
48926;BME280;39838;59.938;30.642;2023-04-07T09:05:43;102181.19;;;7.82;43.29
48926;BME280;39838;59.938;30.642;2023-04-07T09:08:10;102180.63;;;7.90;43.56
48926;BME280;39838;59.938;30.642;2023-04-07T09:10:39;102177.28;;;7.93;43.49
48926;BME280;39838;59.938;30.642;2023-04-07T09:13:06;102174.03;;;7.99;43.15
48926;BME280;39838;59.938;30.642;2023-04-07T09:15:34;102173.28;;;8.01;42.86
48926;BME280;39838;59.938;30.642;2023-04-07T09:18:01;102168.38;;;8.09;43.23
48926;BME280;39838;59.938;30.642;2023-04-07T09:20:56;102163.47;;;8.16;43.43
48926;BME280;39838;59.938;30.642;2023-04-07T09:23:31;102171.66;;;8.27;42.44
48926;BME280;39838;59.938;30.642;2023-04-07T09:26:01;102169.09;;;8.29;42.56
48926;BME280;39838;59.938;30.642;2023-04-07T09:28:45;102164.97;;;8.34;42.31
48926;BME280;39838;59.938;30.642;2023-04-07T09:31:12;102167.78;;;8.40;42.62
48926;BME280;39838;59.938;30.642;2023-04-07T09:33:40;102165.38;;;8.44;42.20
48926;BME280;39838;59.938;30.642;2023-04-07T09:36:07;102158.25;;;8.39;42.43
48926;BME280;39838;59.938;30.642;2023-04-07T09:38:38;102160.16;;;8.43;42.07
48926;BME280;39838;59.938;30.642;2023-04-07T09:41:08;102153.16;;;8.40;41.90
48926;BME280;39838;59.938;30.642;2023-04-07T09:43:36;102150.00;;;8.49;42.05
48926;BME280;39838;59.938;30.642;2023-04-07T09:46:12;102127.66;;;8.29;42.03
48926;BME280;39838;59.938;30.642;2023-04-07T09:48:40;102151.59;;;8.45;42.58
48926;BME280;39838;59.938;30.642;2023-04-07T09:51:09;102150.84;;;8.48;42.36
48926;BME280;39838;59.938;30.642;2023-04-07T09:53:45;102163.03;;;8.52;42.09
48926;BME280;39838;59.938;30.642;2023-04-07T09:56:15;102157.38;;;8.62;42.54
48926;BME280;39838;59.938;30.642;2023-04-07T09:58:44;102148.66;;;8.60;41.85
48926;BME280;39838;59.938;30.642;2023-04-07T10:01:13;102147.03;;;8.64;41.39
48926;BME280;39838;59.938;30.642;2023-04-07T10:03:41;102144.72;;;8.71;42.35
48926;BME280;39838;59.938;30.642;2023-04-07T10:06:08;102141.59;;;8.82;42.42
48926;BME280;39838;59.938;30.642;2023-04-07T10:08:39;102131.44;;;8.88;41.77
48926;BME280;39838;59.938;30.642;2023-04-07T10:11:06;102140.56;;;9.02;42.03
48926;BME280;39838;59.938;30.642;2023-04-07T10:13:36;102133.00;;;9.10;40.99
48926;BME280;39838;59.938;30.642;2023-04-07T10:16:06;102133.63;;;9.01;41.30
48926;BME280;39838;59.938;30.642;2023-04-07T10:18:35;102131.56;;;8.92;41.60
48926;BME280;39838;59.938;30.642;2023-04-07T10:21:04;102132.38;;;8.90;41.35
48926;BME280;39838;59.938;30.642;2023-04-07T10:23:49;102122.63;;;8.83;41.79
48926;BME280;39838;59.938;30.642;2023-04-07T10:26:23;102128.22;;;8.95;41.95
48926;BME280;39838;59.938;30.642;2023-04-07T10:28:56;102119.69;;;8.99;41.64
48926;BME280;39838;59.938;30.642;2023-04-07T10:31:26;102124.41;;;9.11;41.35
48926;BME280;39838;59.938;30.642;2023-04-07T10:33:53;102121.88;;;9.14;40.96
48926;BME280;39838;59.938;30.642;2023-04-07T10:36:21;102108.66;;;9.05;40.80
48926;BME280;39838;59.938;30.642;2023-04-07T10:39:18;102128.31;;;9.25;42.00
48926;BME280;39838;59.938;30.642;2023-04-07T10:41:46;102121.59;;;9.32;41.14
48926;BME280;39838;59.938;30.642;2023-04-07T10:44:46;102120.47;;;9.23;40.74
48926;BME280;39838;59.938;30.642;2023-04-07T10:47:17;102122.78;;;9.14;40.31
48926;BME280;39838;59.938;30.642;2023-04-07T10:50:18;102121.84;;;9.12;41.02
48926;BME280;39838;59.938;30.642;2023-04-07T10:52:46;102117.75;;;9.19;40.92
48926;BME280;39838;59.938;30.642;2023-04-07T10:55:33;102061.75;;;8.97;41.23
48926;BME280;39838;59.938;30.642;2023-04-07T10:58:15;102105.84;;;9.25;41.28
48926;BME280;39838;59.938;30.642;2023-04-07T11:01:16;102100.22;;;9.40;41.26
48926;BME280;39838;59.938;30.642;2023-04-07T11:03:57;102110.75;;;9.45;40.99
48926;BME280;39838;59.938;30.642;2023-04-07T11:06:28;102111.81;;;9.51;40.14
48926;BME280;39838;59.938;30.642;2023-04-07T11:08:56;102106.56;;;9.48;40.79
48926;BME280;39838;59.938;30.642;2023-04-07T11:11:37;102091.47;;;9.35;40.29
48926;BME280;39838;59.938;30.642;2023-04-07T11:14:05;102095.19;;;9.45;40.87
48926;BME280;39838;59.938;30.642;2023-04-07T11:16:41;102094.53;;;9.52;40.38
48926;BME280;39838;59.938;30.642;2023-04-07T11:19:10;102095.84;;;9.68;41.03
48926;BME280;39838;59.938;30.642;2023-04-07T11:21:38;102095.38;;;9.81;40.42
48926;BME280;39838;59.938;30.642;2023-04-07T11:24:05;102097.41;;;9.91;40.30
48926;BME280;39838;59.938;30.642;2023-04-07T11:26:37;102097.53;;;9.96;40.04
48926;BME280;39838;59.938;30.642;2023-04-07T11:29:04;102095.97;;;10.02;40.11
48926;BME280;39838;59.938;30.642;2023-04-07T11:31:32;102098.69;;;10.07;39.70
48926;BME280;39838;59.938;30.642;2023-04-07T11:34:02;102082.16;;;10.03;40.08
48926;BME280;39838;59.938;30.642;2023-04-07T11:36:31;102097.47;;;10.24;39.85
48926;BME280;39838;59.938;30.642;2023-04-07T11:38:59;102088.69;;;10.21;39.49
48926;BME280;39838;59.938;30.642;2023-04-07T11:41:27;102091.25;;;10.19;39.50
48926;BME280;39838;59.938;30.642;2023-04-07T11:44:05;102088.66;;;10.19;39.39
48926;BME280;39838;59.938;30.642;2023-04-07T11:46:33;102083.31;;;10.15;39.37
48926;BME280;39838;59.938;30.642;2023-04-07T11:49:12;102074.31;;;10.02;39.86
48926;BME280;39838;59.938;30.642;2023-04-07T11:51:42;102079.66;;;10.06;40.00
48926;BME280;39838;59.938;30.642;2023-04-07T11:54:09;102076.00;;;10.00;39.85
48926;BME280;39838;59.938;30.642;2023-04-07T11:56:44;102071.66;;;9.99;39.99
48926;BME280;39838;59.938;30.642;2023-04-07T11:59:19;102079.19;;;9.90;39.31
48926;BME280;39838;59.938;30.642;2023-04-07T12:01:48;102069.47;;;9.82;39.92
48926;BME280;39838;59.938;30.642;2023-04-07T12:04:17;102069.41;;;9.81;40.10
48926;BME280;39838;59.938;30.642;2023-04-07T12:06:46;102064.94;;;9.75;39.55
48926;BME280;39838;59.938;30.642;2023-04-07T12:09:30;102062.28;;;9.74;39.57
48926;BME280;39838;59.938;30.642;2023-04-07T12:11:59;102059.91;;;9.81;40.51
48926;BME280;39838;59.938;30.642;2023-04-07T12:14:26;102065.38;;;9.91;39.76
48926;BME280;39838;59.938;30.642;2023-04-07T12:16:54;102063.78;;;9.96;39.81
48926;BME280;39838;59.938;30.642;2023-04-07T12:19:24;102039.31;;;9.88;39.75
48926;BME280;39838;59.938;30.642;2023-04-07T12:21:52;102061.56;;;10.09;39.70
48926;BME280;39838;59.938;30.642;2023-04-07T12:24:19;102060.72;;;10.10;39.75
48926;BME280;39838;59.938;30.642;2023-04-07T12:26:47;102063.41;;;10.15;39.91
48926;BME280;39838;59.938;30.642;2023-04-07T12:29:15;102020.44;;;9.93;40.24
48926;BME280;39838;59.938;30.642;2023-04-07T12:31:44;102062.94;;;10.28;40.33
48926;BME280;39838;59.938;30.642;2023-04-07T12:34:11;102058.91;;;10.39;39.58
48926;BME280;39838;59.938;30.642;2023-04-07T12:36:40;102062.94;;;10.63;40.01
48926;BME280;39838;59.938;30.642;2023-04-07T12:39:07;102056.66;;;10.89;39.98
48926;BME280;39838;59.938;30.642;2023-04-07T12:41:35;102061.66;;;11.18;39.81
48926;BME280;39838;59.938;30.642;2023-04-07T12:44:03;102054.16;;;11.32;39.25
48926;BME280;39838;59.938;30.642;2023-04-07T12:46:30;102053.31;;;11.34;38.75
48926;BME280;39838;59.938;30.642;2023-04-07T12:48:57;102056.75;;;11.32;38.19
48926;BME280;39838;59.938;30.642;2023-04-07T12:51:25;102047.00;;;11.23;38.43
48926;BME280;39838;59.938;30.642;2023-04-07T12:53:54;102051.41;;;11.26;38.08
48926;BME280;39838;59.938;30.642;2023-04-07T12:56:21;102051.31;;;11.21;38.15
48926;BME280;39838;59.938;30.642;2023-04-07T12:58:48;102045.13;;;11.17;37.94
48926;BME280;39838;59.938;30.642;2023-04-07T13:01:15;102047.69;;;11.14;37.94
48926;BME280;39838;59.938;30.642;2023-04-07T13:03:42;102029.88;;;10.93;38.03